Terminal Aerodrome Forecast
Issued by NWS Chicago, IL

Home | Current Version | Previous Version | Graphics & Text | Print | Product List | Glossary On
Versions: 1 2 3 4 5 6 7 8 9 10 11 12 13 14 15 16 17 18 19 20 21 22 23 24 25
000
FTUS43 KLOT 231740
TAFRFD
TAF
KRFD 231740Z 2318/2418 16010KT P6SM FEW250
     FM232000 18011KT P6SM FEW250
     FM240000 18007KT P6SM SKC
     FM241000 18005KT P6SM SCT040 BKN200 PROB30 2410/2416 4SM TSRA
      OVC040CB
     FM241700 21009KT P6SM SCT040 BKN150 PROB30 2417/2418 4SM TSRA
      BKN040CB=

USA.gov is the U.S. government's official web portal to all federal, state and local government web resources and services.